Time;durP1;ratioP1;P1;durP2;ratioP2;P2;SDS_P1;SDS_P2;PMS_P1;PMS_P2;Temp;Humidity;BMP_temperature;BMP_pressure;BME280_temperature;BME280_humidity;BME280_pressure;Samples;Min_cycle;Max_cycle;Signal;HPM_P1;HPM_P2
2021/07/07 00:00:25;;;;;;;0.20;0.20;;;;;;;16.65;73.83;100625.00;5022301;28;20501;-87
2021/07/07 00:03:06;;;;;;;0.17;0.17;;;;;;;16.50;73.21;100642.75;5045957;28;20120;-86
2021/07/07 00:05:34;;;;;;;0.10;0.10;;;;;;;16.42;74.38;100652.59;5045729;28;20383;-88
2021/07/07 00:08:07;;;;;;;0.20;0.20;;;;;;;16.33;75.12;100655.31;5039515;28;20048;-87
2021/07/07 00:10:36;;;;;;;0.13;0.13;;;;;;;16.33;74.86;100654.50;5054449;28;20060;-86
2021/07/07 00:13:11;;;;;;;0.20;0.20;;;;;;;16.33;75.87;100657.25;5051892;28;20041;-86
2021/07/07 00:16:35;;;;;;;0.20;0.20;;;;;;;16.27;74.73;100664.84;5059399;28;20047;-87
2021/07/07 00:19:05;;;;;;;0.20;0.20;;;;;;;16.23;75.01;100665.81;5029246;28;20061;-86
2021/07/07 00:21:38;;;;;;;0.20;0.20;;;;;;;16.06;74.52;100652.81;5036461;28;20505;-86
2021/07/07 00:24:11;;;;;;;0.15;0.15;;;;;;;16.06;75.61;100672.03;5041081;28;20047;-86
2021/07/07 00:26:40;;;;;;;0.20;0.20;;;;;;;15.96;75.66;100676.69;5032619;28;20079;-87
2021/07/07 00:29:14;;;;;;;0.20;0.20;;;;;;;15.90;76.50;100672.44;5052127;28;20041;-87
2021/07/07 00:31:51;;;;;;;0.10;0.10;;;;;;;15.84;79.01;100681.13;5021232;28;20064;-87
2021/07/07 00:34:24;;;;;;;0.10;0.10;;;;;;;15.78;77.96;100694.16;5023530;28;20052;-87
2021/07/07 00:36:53;;;;;;;0.20;0.20;;;;;;;15.65;78.27;100699.41;5029172;28;20060;-86
2021/07/07 00:39:26;;;;;;;0.20;0.20;;;;;;;15.59;77.98;100700.66;5014154;28;20498;-87
2021/07/07 00:41:54;;;;;;;0.10;0.10;;;;;;;15.58;78.87;100707.28;5030459;28;20049;-86
2021/07/07 00:44:29;;;;;;;0.13;0.13;;;;;;;15.55;77.69;100729.84;5020666;28;20489;-87
2021/07/07 00:47:02;;;;;;;0.13;0.13;;;;;;;15.51;74.87;100720.63;5021722;28;20053;-86
2021/07/07 00:49:30;;;;;;;0.17;0.17;;;;;;;15.67;72.91;100721.03;5033317;28;20060;-88
2021/07/07 00:51:59;;;;;;;2.55;0.20;;;;;;;15.71;72.21;100707.50;5056282;28;20041;-86
2021/07/07 00:54:35;;;;;;;0.20;0.20;;;;;;;15.74;69.81;100715.09;5014223;28;20045;-87
2021/07/07 00:57:09;;;;;;;0.20;0.20;;;;;;;15.63;70.05;100715.38;5037936;28;20385;-87
2021/07/07 00:59:44;;;;;;;0.20;0.20;;;;;;;15.68;70.77;100722.66;5049210;28;20041;-86
2021/07/07 01:02:19;;;;;;;0.17;0.17;;;;;;;15.76;71.23;100730.13;5042832;28;20049;-87
2021/07/07 01:04:48;;;;;;;0.20;0.20;;;;;;;15.60;70.06;100728.91;5059754;28;20052;-85
2021/07/07 01:07:16;;;;;;;0.20;0.20;;;;;;;15.70;69.04;100728.66;5030550;28;20371;-85
2021/07/07 01:09:51;;;;;;;0.20;0.20;;;;;;;15.65;71.75;100726.84;5061005;28;20386;-86
2021/07/07 01:12:19;;;;;;;0.10;0.10;;;;;;;15.53;69.76;100729.34;5037048;28;20482;-86
2021/07/07 01:14:55;;;;;;;0.20;0.20;;;;;;;15.43;71.32;100722.16;5030093;28;20045;-87
2021/07/07 01:17:24;;;;;;;0.20;0.20;;;;;;;15.37;73.62;100737.16;5021425;28;20387;-86
2021/07/07 01:19:57;;;;;;;0.20;0.20;;;;;;;15.43;70.71;100740.56;5045323;28;20481;-88
2021/07/07 01:22:32;;;;;;;0.10;0.10;;;;;;;15.46;70.53;100734.47;5048847;28;20045;-88
2021/07/07 01:25:00;;;;;;;0.10;0.10;;;;;;;15.48;71.50;100734.97;5017437;28;20057;-86
2021/07/07 01:27:33;;;;;;;0.10;0.10;;;;;;;15.46;72.85;100739.94;5018516;28;20041;-86
2021/07/07 01:30:31;;;;;;;0.20;0.20;;;;;;;15.51;70.08;100734.34;5033901;28;20064;-86
2021/07/07 01:33:04;;;;;;;0.20;0.20;;;;;;;15.25;73.07;100718.50;5040363;28;20057;-87
2021/07/07 01:35:32;;;;;;;0.20;0.20;;;;;;;15.28;71.25;100750.75;5014262;28;20053;-86
2021/07/07 01:38:07;;;;;;;0.17;0.17;;;;;;;15.27;73.10;100737.38;5041717;28;20044;-86
2021/07/07 01:41:26;;;;;;;0.20;0.20;;;;;;;15.26;71.12;100739.31;5036809;28;20060;-87
2021/07/07 01:43:59;;;;;;;0.10;0.10;;;;;;;15.28;70.78;100748.03;5013619;28;20057;-86
2021/07/07 01:46:29;;;;;;;0.15;0.15;;;;;;;15.19;72.32;100743.59;5025046;28;20068;-87
2021/07/07 01:49:04;;;;;;;0.20;0.20;;;;;;;15.13;72.04;100737.41;5033221;28;20053;-85
2021/07/07 01:51:38;;;;;;;0.20;0.20;;;;;;;15.11;73.45;100748.69;5034358;28;20098;-87
2021/07/07 01:54:16;;;;;;;0.15;0.15;;;;;;;14.95;74.24;100752.88;5034910;28;20513;-86
2021/07/07 01:56:51;;;;;;;0.20;0.20;;;;;;;14.82;75.95;100753.72;5031009;28;20053;-86
2021/07/07 01:59:24;;;;;;;0.15;0.15;;;;;;;14.81;73.31;100760.34;5054374;28;20052;-86
2021/07/07 02:01:58;;;;;;;0.20;0.20;;;;;;;14.96;71.90;100743.56;5033417;28;20065;-87
2021/07/07 02:04:41;;;;;;;0.10;0.10;;;;;;;14.85;74.21;100747.66;5051478;28;20049;-86
2021/07/07 02:07:16;;;;;;;0.20;0.20;;;;;;;14.78;74.25;100745.31;5035519;28;20049;-87
2021/07/07 02:09:51;;;;;;;0.10;0.10;;;;;;;14.88;73.02;100747.03;5039886;28;20044;-87
2021/07/07 02:12:19;;;;;;;0.20;0.20;;;;;;;14.83;72.78;100747.13;5047141;28;20510;-87
2021/07/07 02:14:52;;;;;;;0.10;0.10;;;;;;;14.89;72.01;100751.41;5033380;28;20046;-87
2021/07/07 02:17:25;;;;;;;0.20;0.20;;;;;;;14.77;75.15;100751.91;5039065;28;20059;-87
2021/07/07 02:19:59;;;;;;;0.10;0.10;;;;;;;14.73;74.34;100748.16;5049134;28;20044;-87
2021/07/07 02:23:41;;;;;;;0.20;0.20;;;;;;;14.83;72.17;100758.91;5053369;28;20389;-88
2021/07/07 02:26:15;;;;;;;0.10;0.10;;;;;;;14.65;76.54;100755.16;5035929;28;20057;-87
2021/07/07 02:28:48;;;;;;;0.20;0.20;;;;;;;14.59;73.10;100751.69;5035066;28;20060;-87
2021/07/07 02:31:22;;;;;;;0.20;0.20;;;;;;;14.60;74.68;100752.50;5065647;28;20503;-86
2021/07/07 02:34:00;;;;;;;0.15;0.15;;;;;;;14.60;75.25;100753.31;5040822;28;20508;-87
2021/07/07 02:36:33;;;;;;;0.20;0.20;;;;;;;14.51;74.20;100755.13;5042139;28;20036;-88
2021/07/07 02:39:01;;;;;;;0.20;0.20;;;;;;;14.45;75.01;100757.16;5048085;28;20045;-87
2021/07/07 02:41:39;;;;;;;0.13;0.13;;;;;;;14.44;75.93;100768.41;5042406;28;20052;-87
2021/07/07 02:45:02;;;;;;;0.10;0.10;;;;;;;14.33;75.44;100767.81;5040734;28;20049;-87
2021/07/07 02:47:30;;;;;;;0.15;0.15;;;;;;;14.27;77.54;100753.41;5034142;28;20063;-87
2021/07/07 02:50:04;;;;;;;0.20;0.20;;;;;;;14.33;75.50;100769.75;5042062;28;20049;-86
2021/07/07 02:52:33;;;;;;;0.20;0.20;;;;;;;14.22;76.57;100767.19;5026519;28;20065;-86
2021/07/07 02:55:11;;;;;;;0.20;0.20;;;;;;;14.20;77.88;100774.09;5040231;28;20052;-87
2021/07/07 02:57:58;;;;;;;0.20;0.20;;;;;;;14.14;78.30;100759.69;5035161;28;20060;-88
2021/07/07 03:00:30;;;;;;;0.15;0.15;;;;;;;14.11;78.71;100766.56;5043319;28;20049;-86
2021/07/07 03:03:08;;;;;;;0.20;0.20;;;;;;;14.05;78.05;100765.03;5040671;28;20051;-88
2021/07/07 03:05:43;;;;;;;0.10;0.10;;;;;;;14.08;79.15;100763.63;5027064;28;20046;-87
2021/07/07 03:08:13;;;;;;;0.20;0.20;;;;;;;14.04;78.99;100768.06;5034212;28;20056;-88
2021/07/07 03:10:48;;;;;;;0.20;0.20;;;;;;;14.03;79.69;100774.66;5025661;28;20050;-87
2021/07/07 03:13:29;;;;;;;0.10;0.10;;;;;;;13.98;79.12;100783.78;5031860;28;20046;-88
2021/07/07 03:16:03;;;;;;;0.20;0.20;;;;;;;13.89;78.33;100774.63;5047846;28;20052;-88
2021/07/07 03:18:32;;;;;;;0.20;0.20;;;;;;;13.93;79.43;100781.13;5044777;28;20053;-88
2021/07/07 03:21:10;;;;;;;0.20;0.20;;;;;;;13.92;79.78;100788.53;5043674;28;20041;-87
2021/07/07 03:23:39;;;;;;;0.10;0.10;;;;;;;13.93;79.82;100781.94;5026946;28;20050;-87
2021/07/07 03:26:12;;;;;;;0.10;0.10;;;;;;;13.91;79.22;100786.88;5035177;28;20049;-87
2021/07/07 03:28:48;;;;;;;0.20;0.20;;;;;;;13.89;78.41;100791.88;5035119;28;20059;-87
2021/07/07 03:31:21;;;;;;;0.10;0.10;;;;;;;13.90;77.99;100789.94;5046004;28;20061;-86
2021/07/07 03:33:54;;;;;;;0.20;0.20;;;;;;;14.01;79.04;100793.31;5034345;28;20064;-87
2021/07/07 03:36:23;;;;;;;0.20;0.20;;;;;;;14.11;77.82;100772.06;5046582;28;20060;-86
2021/07/07 03:38:57;;;;;;;0.10;0.10;;;;;;;14.00;79.76;100784.25;5038806;28;20392;-88
2021/07/07 03:41:25;;;;;;;0.10;0.10;;;;;;;13.96;79.50;100780.50;5034857;28;20052;-86
2021/07/07 03:44:02;;;;;;;0.13;0.13;;;;;;;13.91;80.39;100780.63;5031633;28;20056;-87
2021/07/07 03:46:36;;;;;;;0.20;0.20;;;;;;;13.87;79.74;100788.59;5030500;28;20053;-86
2021/07/07 03:49:04;;;;;;;0.10;0.10;;;;;;;13.92;80.86;100799.47;5045832;28;20394;-87
2021/07/07 03:51:33;;;;;;;0.20;0.20;;;;;;;13.88;81.32;100814.84;5023399;28;20050;-87
2021/07/07 03:54:06;;;;;;;0.10;0.10;;;;;;;13.94;81.61;100826.53;5028195;28;20049;-87
2021/07/07 03:56:34;;;;;;;0.20;0.20;;;;;;;13.88;80.46;100831.25;5019036;28;20053;-87
2021/07/07 03:59:04;;;;;;;0.20;0.20;;;;;;;13.95;80.53;100825.41;5043954;28;20056;-88
2021/07/07 04:01:32;;;;;;;0.10;0.10;;;;;;;13.95;80.85;100823.47;5048837;28;20047;-87
2021/07/07 04:04:10;;;;;;;0.20;0.20;;;;;;;13.89;81.83;100823.84;5038739;28;20052;-87
2021/07/07 04:06:43;;;;;;;0.50;0.30;;;;;;;13.91;81.71;100827.94;5049475;28;20041;-87
2021/07/07 04:09:19;;;;;;;0.10;0.10;;;;;;;13.83;81.15;100823.13;5037793;28;20045;-87
2021/07/07 04:11:52;;;;;;;0.10;0.10;;;;;;;13.93;81.97;100831.19;5048001;28;20060;-87
2021/07/07 04:14:24;;;;;;;0.20;0.20;;;;;;;13.86;81.62;100829.94;5033742;28;20060;-87
2021/07/07 04:16:58;;;;;;;0.20;0.20;;;;;;;13.87;81.59;100840.56;5051937;28;20053;-87
2021/07/07 04:19:31;;;;;;;0.10;0.10;;;;;;;13.91;81.80;100833.41;5051061;28;20040;-88
2021/07/07 04:22:05;;;;;;;0.10;0.10;;;;;;;13.87;82.35;100845.25;5050971;28;20052;-87
2021/07/07 04:24:43;;;;;;;0.10;0.10;;;;;;;13.88;82.11;100844.94;5053871;28;20048;-87
2021/07/07 04:27:16;;;;;;;0.20;0.20;;;;;;;13.86;82.68;100844.41;5014304;28;20045;-86
2021/07/07 04:29:51;;;;;;;0.20;0.20;;;;;;;13.92;83.18;100842.41;5029406;28;20052;-87
2021/07/07 04:32:22;;;;;;;0.10;0.10;;;;;;;13.96;83.13;100857.13;5051519;28;20053;-86
2021/07/07 04:35:01;;;;;;;0.20;0.20;;;;;;;14.01;81.45;100857.03;5026322;28;20046;-87
2021/07/07 04:37:39;;;;;;;0.10;0.10;;;;;;;13.97;82.09;100855.22;5050305;28;20490;-86
2021/07/07 04:40:17;;;;;;;0.10;0.10;;;;;;;13.94;82.99;100851.16;5034163;28;20057;-88
2021/07/07 04:42:52;;;;;;;0.20;0.20;;;;;;;13.97;82.37;100855.22;5050400;28;20048;-87
2021/07/07 04:45:26;;;;;;;0.20;0.20;;;;;;;13.97;82.79;100853.28;5043389;28;20424;-87
2021/07/07 04:47:59;;;;;;;0.10;0.10;;;;;;;14.05;80.85;100849.84;5046606;28;20402;-87
2021/07/07 04:50:31;;;;;;;0.20;0.20;;;;;;;14.02;82.44;100857.88;5040369;28;20057;-87
2021/07/07 04:53:04;;;;;;;0.20;0.20;;;;;;;14.11;83.29;100854.16;5026917;28;20057;-86
2021/07/07 04:55:37;;;;;;;0.20;0.20;;;;;;;14.11;83.29;100864.28;5039777;28;20050;-87
2021/07/07 04:58:11;;;;;;;0.20;0.20;;;;;;;14.13;82.93;100862.06;5030582;28;20058;-87
2021/07/07 05:00:45;;;;;;;0.20;0.20;;;;;;;14.12;83.78;100868.63;5047904;28;20502;-86
2021/07/07 05:04:09;;;;;;;0.20;0.20;;;;;;;14.04;82.62;100864.66;5018842;28;20056;-87
2021/07/07 05:06:37;;;;;;;0.20;0.20;;;;;;;14.14;83.71;100866.44;5046436;28;20057;-87
2021/07/07 05:09:12;;;;;;;0.20;0.20;;;;;;;14.10;82.09;100858.00;5042561;28;20057;-87
2021/07/07 05:11:49;;;;;;;0.20;0.20;;;;;;;14.21;82.76;100855.91;5034081;28;20056;-87
2021/07/07 05:14:22;;;;;;;0.20;0.20;;;;;;;14.17;82.90;100856.78;5049758;28;20048;-88
2021/07/07 05:16:57;;;;;;;0.20;0.20;;;;;;;14.18;82.56;100852.94;5048100;28;20109;-88
2021/07/07 05:19:31;;;;;;;0.10;0.10;;;;;;;14.23;83.04;100870.09;5043712;28;20041;-87
2021/07/07 05:22:04;;;;;;;0.10;0.10;;;;;;;14.32;82.28;100870.22;5031310;28;20049;-87
2021/07/07 05:24:38;;;;;;;0.20;0.20;;;;;;;14.35;81.88;100866.88;5031705;28;20052;-87
2021/07/07 05:27:11;;;;;;;0.20;0.20;;;;;;;14.43;84.66;100879.06;5038186;28;20044;-87
2021/07/07 05:29:39;;;;;;;0.20;0.20;;;;;;;14.51;83.60;100883.84;5042066;28;20057;-86
2021/07/07 05:32:20;;;;;;;0.20;0.20;;;;;;;14.55;82.97;100892.28;5046157;28;20056;-87
2021/07/07 05:34:54;;;;;;;0.20;0.20;;;;;;;14.48;83.62;100869.94;5060081;28;20041;-87
2021/07/07 05:37:22;;;;;;;0.13;0.13;;;;;;;14.51;82.41;100878.34;5029951;28;20062;-87
2021/07/07 05:39:55;;;;;;;0.20;0.20;;;;;;;14.48;82.21;100884.44;5049051;28;20064;-87
2021/07/07 05:42:29;;;;;;;0.20;0.20;;;;;;;14.58;82.74;100883.44;5046213;28;20053;-87
2021/07/07 05:44:58;;;;;;;0.20;0.20;;;;;;;14.63;79.79;100875.19;5050629;28;20402;-86
2021/07/07 05:47:38;;;;;;;0.20;0.20;;;;;;;14.68;82.82;100894.25;5049442;28;20046;-87
2021/07/07 05:50:13;;;;;;;0.52;0.20;;;;;;;14.65;84.09;100883.88;5043371;28;20057;-87
2021/07/07 05:52:48;;;;;;;0.20;0.20;;;;;;;14.69;84.89;100890.38;5046560;28;20048;-87
2021/07/07 05:55:17;;;;;;;0.20;0.20;;;;;;;14.77;83.94;100897.91;5044826;28;20498;-88
2021/07/07 05:57:50;;;;;;;0.10;0.10;;;;;;;14.79;83.69;100898.44;5039338;28;20052;-87
2021/07/07 06:00:27;;;;;;;0.10;0.10;;;;;;;14.75;84.03;100900.16;5053258;28;20056;-87
2021/07/07 06:03:02;;;;;;;0.20;0.20;;;;;;;14.76;82.87;100898.22;5048960;28;20489;-87
2021/07/07 06:05:39;;;;;;;0.10;0.10;;;;;;;14.85;84.68;100904.63;5059778;28;20045;-87
2021/07/07 06:08:16;;;;;;;0.20;0.20;;;;;;;14.94;83.78;100921.16;5030919;28;20266;-87
2021/07/07 06:10:46;;;;;;;0.20;0.20;;;;;;;14.92;81.96;100928.88;5036122;28;20052;-87
2021/07/07 06:13:19;;;;;;;0.13;0.13;;;;;;;14.99;83.04;100934.78;5044356;28;20056;-88
2021/07/07 06:15:53;;;;;;;0.17;0.17;;;;;;;14.95;81.51;100926.34;5026073;28;20420;-88
2021/07/07 06:18:26;;;;;;;0.20;0.20;;;;;;;14.95;83.47;100931.81;5033507;28;20061;-88
2021/07/07 06:21:05;;;;;;;0.13;0.13;;;;;;;14.99;83.41;100923.00;5024409;28;20498;-87
2021/07/07 06:23:38;;;;;;;0.20;0.20;;;;;;;15.04;83.99;100922.88;5034164;28;20411;-86
2021/07/07 06:26:11;;;;;;;0.20;0.20;;;;;;;15.02;83.82;100927.88;5048830;28;20511;-87
2021/07/07 06:28:50;;;;;;;0.20;0.20;;;;;;;14.99;84.02;100925.75;5046772;28;20045;-88
2021/07/07 06:31:49;;;;;;;0.20;0.20;;;;;;;15.06;83.53;100940.66;5031138;28;20045;-87
2021/07/07 06:34:19;;;;;;;0.20;0.20;;;;;;;15.10;84.16;100927.97;5031332;28;20049;-88
2021/07/07 06:36:52;;;;;;;0.17;0.17;;;;;;;15.22;83.40;100949.41;5028110;28;20060;-85
2021/07/07 06:39:26;;;;;;;0.20;0.20;;;;;;;15.29;84.19;100949.00;5032017;28;20616;-86
2021/07/07 06:42:05;;;;;;;0.10;0.10;;;;;;;15.29;82.40;100949.81;5029158;28;20064;-85
2021/07/07 06:44:39;;;;;;;0.10;0.10;;;;;;;15.30;82.69;100951.44;5031919;28;20056;-84
2021/07/07 06:47:12;;;;;;;0.47;0.20;;;;;;;15.32;84.80;100942.91;5040545;28;20053;-86
2021/07/07 06:49:49;;;;;;;0.20;0.20;;;;;;;15.36;82.41;100941.19;5026244;28;20040;-87
2021/07/07 06:52:27;;;;;;;0.20;0.20;;;;;;;15.46;83.07;100957.41;5045370;28;20040;-84
2021/07/07 06:55:00;;;;;;;0.20;0.20;;;;;;;15.45;83.27;100958.53;5048357;28;20048;-87
2021/07/07 06:57:35;;;;;;;0.20;0.20;;;;;;;15.44;82.96;100967.09;5032648;28;20056;-84
2021/07/07 07:00:11;;;;;;;0.20;0.20;;;;;;;15.39;83.93;100962.50;5051880;28;20489;-86
2021/07/07 07:02:40;;;;;;;0.20;0.20;;;;;;;15.45;83.89;100961.28;5051202;28;20049;-85
2021/07/07 07:05:18;;;;;;;0.10;0.10;;;;;;;15.52;84.07;100976.50;5032169;28;20056;-86
2021/07/07 07:07:51;;;;;;;0.20;0.20;;;;;;;15.63;83.93;100980.66;5055281;28;20041;-86
2021/07/07 07:10:25;;;;;;;0.10;0.10;;;;;;;15.64;83.23;100985.03;5035733;28;20053;-85
2021/07/07 07:12:53;;;;;;;0.10;0.10;;;;;;;15.84;83.64;100986.56;5022614;28;20061;-86
2021/07/07 07:15:26;;;;;;;0.20;0.20;;;;;;;16.14;83.81;100985.06;5044667;28;20052;-88
2021/07/07 07:18:00;;;;;;;0.13;0.13;;;;;;;16.54;83.58;100991.81;5042051;28;20048;-86
2021/07/07 07:20:35;;;;;;;0.20;0.20;;;;;;;16.96;80.65;100997.94;5025869;28;20049;-86
2021/07/07 07:23:09;;;;;;;0.20;0.20;;;;;;;17.04;77.71;100990.84;5024287;28;20060;-85
2021/07/07 07:25:43;;;;;;;0.20;0.20;;;;;;;16.87;80.02;100995.09;5043052;28;20056;-84
2021/07/07 07:28:19;;;;;;;0.20;0.20;;;;;;;16.75;78.02;101009.44;5022925;28;20065;-86
2021/07/07 07:30:53;;;;;;;0.20;0.20;;;;;;;16.74;77.11;101020.72;5026413;28;20048;-85
2021/07/07 07:33:28;;;;;;;0.25;0.20;;;;;;;16.86;78.32;101018.19;5024338;28;20701;-85
2021/07/07 07:36:03;;;;;;;0.20;0.20;;;;;;;17.11;79.30;101015.94;5043398;28;20048;-85
2021/07/07 07:38:41;;;;;;;0.20;0.20;;;;;;;17.15;80.27;101015.00;5023944;28;20649;-83
2021/07/07 07:41:15;;;;;;;0.10;0.10;;;;;;;17.19;80.54;101006.91;5039360;28;20059;-86
2021/07/07 07:43:48;;;;;;;0.10;0.10;;;;;;;17.30;76.03;101018.47;5047257;28;20049;-86
2021/07/07 07:46:21;;;;;;;0.10;0.10;;;;;;;17.49;76.42;101019.00;5046506;28;20060;-86
2021/07/07 07:48:49;;;;;;;0.20;0.20;;;;;;;17.47;77.67;101021.28;5044082;28;20049;-84
2021/07/07 07:51:24;;;;;;;0.13;0.13;;;;;;;17.54;76.75;101014.50;5020119;28;20048;-86
2021/07/07 07:53:58;;;;;;;0.20;0.20;;;;;;;17.51;73.35;101013.19;5045168;28;20059;-84
2021/07/07 07:56:27;;;;;;;0.15;0.15;;;;;;;17.86;76.95;101007.78;5043444;28;20052;-85
2021/07/07 07:59:00;;;;;;;0.17;0.17;;;;;;;18.10;75.54;100996.34;5025891;28;20053;-85
2021/07/07 08:01:34;;;;;;;0.13;0.13;;;;;;;18.40;76.45;101003.97;5043504;28;20056;-86
2021/07/07 08:04:08;;;;;;;0.20;0.20;;;;;;;18.52;73.86;101015.16;5025265;28;20467;-86
2021/07/07 08:06:43;;;;;;;0.15;0.15;;;;;;;18.57;73.33;101009.44;5047076;28;20107;-87
2021/07/07 08:09:16;;;;;;;0.20;0.20;;;;;;;18.56;71.29;101021.63;5027955;28;20053;-85
2021/07/07 08:11:51;;;;;;;0.10;0.10;;;;;;;18.58;71.34;101022.09;5043754;28;20053;-87
2021/07/07 08:14:24;;;;;;;0.20;0.20;;;;;;;18.42;71.42;101016.28;5048195;28;20057;-86
2021/07/07 08:16:52;;;;;;;0.20;0.20;;;;;;;18.25;72.22;101025.34;5046596;28;20437;-84
2021/07/07 08:19:25;;;;;;;0.20;0.20;;;;;;;17.94;70.95;101028.22;5026486;28;20071;-85
2021/07/07 08:21:55;;;;;;;0.20;0.20;;;;;;;18.11;68.48;101033.75;5026601;28;20870;-85
2021/07/07 08:24:28;;;;;;;0.20;0.20;;;;;;;18.07;71.71;101032.78;5026107;28;20441;-86
2021/07/07 08:27:02;;;;;;;0.20;0.20;;;;;;;18.44;71.79;101029.75;5022248;28;20057;-87
2021/07/07 08:29:41;;;;;;;0.45;0.20;;;;;;;18.35;73.72;101035.22;5041619;28;20049;-84
2021/07/07 08:32:17;;;;;;;0.10;0.10;;;;;;;18.32;72.65;101033.13;5026706;28;20061;-88
2021/07/07 08:34:50;;;;;;;0.10;0.10;;;;;;;18.27;73.08;101036.03;5047857;28;20060;-87
2021/07/07 08:37:26;;;;;;;0.20;0.20;;;;;;;18.33;70.88;101032.00;5018932;28;20394;-85
2021/07/07 08:40:01;;;;;;;0.13;0.13;;;;;;;18.41;71.37;101028.44;5041173;28;20048;-84
2021/07/07 08:42:34;;;;;;;0.28;0.20;;;;;;;18.56;70.40;101021.63;5021195;28;20063;-86
2021/07/07 08:45:11;;;;;;;0.20;0.20;;;;;;;18.67;71.92;101025.66;5039020;28;20861;-87
2021/07/07 08:47:47;;;;;;;0.20;0.20;;;;;;;18.61;70.21;101021.44;5022103;28;20802;-85
2021/07/07 08:50:17;;;;;;;0.20;0.20;;;;;;;18.64;67.68;101029.06;5042139;28;20578;-87
2021/07/07 08:52:55;;;;;;;0.20;0.20;;;;;;;18.78;69.91;101034.41;5021822;28;20065;-87
2021/07/07 08:55:29;;;;;;;0.20;0.20;;;;;;;18.90;69.64;101022.72;5020038;28;20489;-84
2021/07/07 08:57:58;;;;;;;0.10;0.10;;;;;;;19.15;71.60;101032.03;5043376;28;20056;-87
2021/07/07 09:00:34;;;;;;;0.10;0.10;;;;;;;19.29;67.98;101034.63;5038785;28;20049;-87
2021/07/07 09:03:11;;;;;;;0.10;0.10;;;;;;;19.33;69.97;101032.81;5021782;28;20061;-86
2021/07/07 09:05:54;;;;;;;0.10;0.10;;;;;;;19.52;68.92;101039.88;5019036;28;20056;-86
2021/07/07 09:08:32;;;;;;;0.20;0.20;;;;;;;19.88;68.08;101050.41;5024999;28;20049;-85
2021/07/07 09:11:18;;;;;;;0.13;0.13;;;;;;;19.86;64.87;101055.47;5043682;28;20056;-87
2021/07/07 09:13:48;;;;;;;0.10;0.10;;;;;;;20.11;66.88;101057.63;5026754;28;20061;-87
2021/07/07 09:16:23;;;;;;;0.20;0.20;;;;;;;20.26;66.96;101058.94;5024928;28;20056;-86
2021/07/07 09:18:58;;;;;;;0.10;0.10;;;;;;;20.28;66.19;101045.63;5045821;28;20045;-85
2021/07/07 09:21:32;;;;;;;0.10;0.10;;;;;;;20.53;66.47;101060.38;5047499;28;20394;-87
2021/07/07 09:24:18;;;;;;;0.20;0.20;;;;;;;20.54;65.68;101057.25;5046062;28;20055;-86
2021/07/07 09:26:58;;;;;;;0.20;0.20;;;;;;;20.73;66.74;101070.63;5025167;28;20060;-87
2021/07/07 09:29:35;;;;;;;0.10;0.10;;;;;;;20.80;64.35;101075.59;5045494;28;20045;-87
2021/07/07 09:32:13;;;;;;;0.20;0.10;;;;;;;20.81;63.63;101071.69;5027904;28;20065;-84
2021/07/07 09:34:50;;;;;;;0.20;0.20;;;;;;;20.92;65.77;101082.31;5030086;28;21559;-86
2021/07/07 09:37:25;;;;;;;0.10;0.10;;;;;;;20.97;62.65;101082.13;5031597;28;20056;-85
2021/07/07 09:40:07;;;;;;;0.10;0.10;;;;;;;20.88;63.79;101057.28;5025295;28;20052;-87
2021/07/07 09:42:45;;;;;;;0.10;0.10;;;;;;;21.21;64.37;101073.06;5029176;28;20053;-87
2021/07/07 09:45:21;;;;;;;0.10;0.10;;;;;;;21.44;63.04;101083.72;5030007;28;20048;-86
2021/07/07 09:47:50;;;;;;;0.10;0.10;;;;;;;21.46;62.63;101084.16;5016438;28;20068;-86
2021/07/07 09:50:23;;;;;;;0.10;0.10;;;;;;;21.66;63.15;101075.00;5032620;28;20060;-85
2021/07/07 09:52:56;;;;;;;0.20;0.20;;;;;;;21.80;60.14;101082.94;5015017;28;20061;-84
2021/07/07 09:55:31;;;;;;;0.15;0.15;;;;;;;21.88;62.09;101075.69;5032975;28;20053;-85
2021/07/07 09:58:05;;;;;;;0.10;0.10;;;;;;;21.62;60.76;101073.25;5018582;28;20060;-86
2021/07/07 10:00:39;;;;;;;0.10;0.10;;;;;;;21.57;59.80;101090.91;5036807;28;20060;-84
2021/07/07 10:03:13;;;;;;;0.20;0.20;;;;;;;21.49;60.77;101083.47;5032410;28;20041;-85
2021/07/07 10:05:48;;;;;;;0.10;0.10;;;;;;;21.64;60.64;101098.63;5016265;28;20730;-85
2021/07/07 10:08:22;;;;;;;0.15;0.15;;;;;;;21.62;60.63;101087.91;5039572;28;20048;-86
2021/07/07 10:10:53;;;;;;;0.10;0.10;;;;;;;21.65;58.33;101076.13;5014367;28;20053;-85
2021/07/07 10:13:22;;;;;;;0.20;0.20;;;;;;;21.69;58.05;101079.03;5036917;28;20059;-85
2021/07/07 10:15:55;;;;;;;0.10;0.10;;;;;;;21.86;59.16;101078.81;5021816;28;20736;-87
2021/07/07 10:18:29;;;;;;;0.20;0.20;;;;;;;21.81;61.19;101076.25;5035213;28;20045;-88
2021/07/07 10:21:03;;;;;;;0.10;0.10;;;;;;;21.91;59.39;101078.53;5013237;28;20067;-86
2021/07/07 10:23:39;;;;;;;0.20;0.20;;;;;;;21.88;60.22;101072.91;5040093;28;20049;-85
2021/07/07 10:26:12;;;;;;;0.10;0.10;;;;;;;22.14;56.93;101074.47;5012707;28;20067;-84
2021/07/07 10:28:46;;;;;;;0.20;0.20;;;;;;;22.12;57.16;101068.50;5014870;28;20201;-87
2021/07/07 10:31:46;;;;;;;0.10;0.10;;;;;;;22.46;58.27;101078.25;5009903;28;20052;-85
2021/07/07 10:34:22;;;;;;;0.15;0.10;;;;;;;22.35;59.45;101074.38;5013401;28;20063;-86
2021/07/07 10:36:57;;;;;;;0.13;0.13;;;;;;;22.64;59.30;101072.44;5039676;28;20725;-86
2021/07/07 10:39:31;;;;;;;0.10;0.10;;;;;;;22.92;58.89;101069.63;5038758;28;20437;-85
2021/07/07 10:42:08;;;;;;;0.10;0.10;;;;;;;22.22;57.06;101073.53;5041043;28;20056;-87
2021/07/07 10:44:48;;;;;;;0.10;0.10;;;;;;;21.78;58.21;101076.13;5017605;28;20053;-87
2021/07/07 10:47:18;;;;;;;0.20;0.20;;;;;;;21.57;59.33;101085.38;5042847;28;20052;-87
2021/07/07 10:49:54;;;;;;;0.10;0.10;;;;;;;21.77;61.74;101072.56;5016964;28;20057;-85
2021/07/07 10:52:40;;;;;;;0.10;0.10;;;;;;;21.79;59.84;101073.00;5016294;28;20064;-86
2021/07/07 10:55:16;;;;;;;0.15;0.15;;;;;;;21.96;56.64;101071.16;5035878;28;20052;-87
2021/07/07 10:57:47;;;;;;;0.10;0.10;;;;;;;21.57;57.93;101080.66;5034528;28;20056;-88
2021/07/07 11:00:32;;;;;;;0.10;0.10;;;;;;;21.60;56.79;101081.91;5038649;28;20406;-86
2021/07/07 11:03:33;;;;;;;0.20;0.20;;;;;;;21.34;58.92;101083.00;5018340;28;20410;-86
2021/07/07 11:06:27;;;;;;;0.10;0.10;;;;;;;21.30;63.04;101081.28;5039103;28;20053;-87
2021/07/07 11:09:14;;;;;;;0.10;0.10;;;;;;;21.18;63.17;101088.38;5044763;28;20466;-88
2021/07/07 11:11:45;;;;;;;0.10;0.10;;;;;;;21.12;62.97;101084.22;5025003;28;20045;-86
2021/07/07 11:14:19;;;;;;;0.10;0.10;;;;;;;20.92;64.59;101083.13;5038905;28;20041;-86
2021/07/07 11:16:57;;;;;;;0.10;0.10;;;;;;;20.81;64.26;101087.47;5021984;28;20061;-88
2021/07/07 11:19:42;;;;;;;0.13;0.13;;;;;;;20.67;62.59;101090.50;5025209;28;20049;-88
2021/07/07 11:22:18;;;;;;;0.20;0.20;;;;;;;20.75;59.39;101077.78;5039387;28;20056;-85
2021/07/07 11:24:48;;;;;;;0.20;0.20;;;;;;;20.94;63.56;101085.56;5022268;28;20056;-85
2021/07/07 11:27:16;;;;;;;0.10;0.10;;;;;;;20.92;62.54;101091.41;5025713;28;20071;-87
2021/07/07 11:29:51;;;;;;;0.10;0.10;;;;;;;20.79;65.11;101093.34;5042661;28;20041;-87
2021/07/07 11:32:27;;;;;;;0.13;0.13;;;;;;;20.76;64.97;101087.69;5023715;28;20461;-88
2021/07/07 11:35:02;;;;;;;0.20;0.20;;;;;;;20.67;66.68;101090.50;5012392;28;20061;-89
2021/07/07 11:37:38;;;;;;;0.20;0.20;;;;;;;20.87;65.12;101091.66;5038307;28;20059;-87
2021/07/07 11:40:16;;;;;;;0.25;0.20;;;;;;;20.98;66.64;101098.38;5022978;28;20060;-86
2021/07/07 11:43:02;;;;;;;0.17;0.17;;;;;;;21.20;67.35;101082.53;5039383;28;20484;-86
2021/07/07 11:45:40;;;;;;;0.10;0.10;;;;;;;21.38;64.67;101083.94;5039195;28;20045;-87
2021/07/07 11:48:17;;;;;;;0.20;0.20;;;;;;;21.50;66.89;101080.38;5017719;28;20597;-86
2021/07/07 11:50:53;;;;;;;0.20;0.20;;;;;;;22.05;60.86;101072.66;5022192;28;20048;-86
2021/07/07 11:53:37;;;;;;;0.20;0.20;;;;;;;22.54;63.03;101076.50;5025025;28;20067;-87
2021/07/07 11:56:13;;;;;;;0.20;0.20;;;;;;;22.94;60.22;101070.09;5032635;28;20672;-84
2021/07/07 11:58:49;;;;;;;0.10;0.10;;;;;;;23.20;59.06;101075.16;5014246;28;20056;-87
2021/07/07 12:01:23;;;;;;;0.10;0.10;;;;;;;23.19;57.97;101068.00;5013844;28;20052;-87